Time;durP1;ratioP1;P1;durP2;ratioP2;P2;SDS_P1;SDS_P2;PMS_P1;PMS_P2;Temp;Humidity;BMP_temperature;BMP_pressure;BME280_temperature;BME280_humidity;BME280_pressure;Samples;Min_cycle;Max_cycle;Signal;HPM_P1;HPM_P2
2022/03/19 00:00:30;;;;;;;73.00;32.97;;;;;;;1.09;68.98;103396.16;10259365;29;20266;-73
2022/03/19 00:05:44;;;;;;;74.93;31.80;;;;;;;1.06;69.05;103398.47;10260263;28;20231;-74
2022/03/19 00:10:47;;;;;;;70.97;32.33;;;;;;;1.04;69.70;103389.78;10259711;28;20232;-75
2022/03/19 00:15:51;;;;;;;72.33;32.70;;;;;;;1.07;69.21;103383.25;10262639;28;20227;-74
2022/03/19 00:20:56;;;;;;;68.10;31.43;;;;;;;1.02;67.77;103386.22;10262647;28;20246;-74
2022/03/19 00:26:00;;;;;;;67.13;32.27;;;;;;;0.93;67.53;103383.84;10265833;28;20206;-73
2022/03/19 00:31:03;;;;;;;72.43;31.37;;;;;;;0.68;66.83;103381.84;10263883;28;20694;-73
2022/03/19 00:36:08;;;;;;;74.53;32.53;;;;;;;0.73;67.99;103377.97;10262095;28;20283;-74
2022/03/19 00:41:13;;;;;;;60.90;31.20;;;;;;;0.88;66.70;103374.06;10261800;28;20232;-73
2022/03/19 00:46:19;;;;;;;65.83;29.70;;;;;;;0.83;66.76;103378.81;10261758;28;20220;-73
2022/03/19 00:51:23;;;;;;;63.03;29.87;;;;;;;0.87;66.19;103374.84;10261459;28;20224;-75
2022/03/19 00:56:27;;;;;;;62.93;30.13;;;;;;;0.86;66.08;103381.59;10262167;28;20212;-74
2022/03/19 01:01:31;;;;;;;66.87;30.47;;;;;;;0.86;66.33;103373.94;10263709;28;20228;-75
2022/03/19 01:06:35;;;;;;;70.03;31.23;;;;;;;0.79;66.64;103374.25;10262506;28;20236;-75
2022/03/19 01:11:39;;;;;;;71.03;31.23;;;;;;;0.73;65.29;103372.88;10261036;28;20242;-75
2022/03/19 01:16:42;;;;;;;68.20;30.37;;;;;;;0.45;65.33;103363.84;10260597;28;20660;-75
2022/03/19 01:21:47;;;;;;;65.77;29.60;;;;;;;0.29;67.00;103355.75;10260432;28;20246;-75
2022/03/19 01:26:50;;;;;;;61.73;29.87;;;;;;;0.39;66.40;103360.78;10260656;28;20224;-74
2022/03/19 01:31:53;;;;;;;66.30;30.53;;;;;;;0.38;65.36;103366.69;10260507;28;20216;-75
2022/03/19 01:36:58;;;;;;;68.93;29.87;;;;;;;0.46;65.34;103368.19;10264272;28;20220;-77
2022/03/19 01:42:01;;;;;;;60.50;30.03;;;;;;;0.47;64.60;103367.38;10259610;29;20224;-76
2022/03/19 01:47:07;;;;;;;65.10;29.40;;;;;;;0.31;64.60;103364.44;10259171;28;20271;-74
2022/03/19 01:52:13;;;;;;;61.30;28.70;;;;;;;0.17;64.05;103359.88;10259377;28;20231;-74
2022/03/19 01:57:19;;;;;;;70.33;30.80;;;;;;;0.18;65.23;103362.56;10259962;28;20314;-77
2022/03/19 02:02:24;;;;;;;60.97;27.57;;;;;;;0.30;65.78;103362.63;10259213;28;20228;-73
2022/03/19 02:07:29;;;;;;;64.90;28.60;;;;;;;0.29;64.79;103359.19;10258763;28;20256;-74
2022/03/19 02:12:32;;;;;;;64.30;29.37;;;;;;;0.11;64.38;103356.81;10262110;28;20220;-73
2022/03/19 02:17:35;;;;;;;67.57;28.90;;;;;;;0.08;66.16;103370.25;10258102;28;20226;-74
2022/03/19 02:22:40;;;;;;;67.00;29.33;;;;;;;0.19;65.34;103373.66;10258171;28;20240;-73
2022/03/19 02:27:46;;;;;;;69.00;30.63;;;;;;;0.17;65.92;103373.56;10257917;28;20606;-80
2022/03/19 02:32:50;;;;;;;59.30;29.53;;;;;;;0.21;66.23;103367.03;10258493;28;20307;-75
2022/03/19 02:37:54;;;;;;;66.40;29.57;;;;;;;0.13;65.44;103368.97;10257788;28;20612;-74
2022/03/19 02:42:58;;;;;;;71.27;30.00;;;;;;;-0.05;64.63;103378.59;10257648;28;20224;-73
2022/03/19 02:48:02;;;;;;;64.53;29.27;;;;;;;-0.02;65.98;103378.81;10260053;28;20686;-74
2022/03/19 02:53:07;;;;;;;62.57;28.77;;;;;;;0.00;66.19;103379.84;10257094;28;20244;-73
2022/03/19 02:58:12;;;;;;;63.47;28.80;;;;;;;-0.04;66.97;103382.94;10257801;28;20228;-76
2022/03/19 03:03:15;;;;;;;70.67;30.27;;;;;;;-0.10;67.28;103384.06;10256873;28;20224;-74
2022/03/19 03:08:19;;;;;;;68.70;29.03;;;;;;;-0.19;67.68;103388.47;10256843;28;20226;-73
2022/03/19 03:13:24;;;;;;;67.10;30.37;;;;;;;-0.22;68.04;103389.09;10256485;28;20552;-75
2022/03/19 03:18:27;;;;;;;74.33;30.63;;;;;;;-0.19;67.94;103389.31;10256152;28;20240;-76
2022/03/19 03:23:31;;;;;;;75.23;33.07;;;;;;;-0.19;68.58;103386.78;10260713;28;20319;-76
2022/03/19 03:28:36;;;;;;;80.73;33.87;;;;;;;-0.25;67.76;103391.41;10256380;28;20216;-74
2022/03/19 03:33:40;;;;;;;78.47;34.50;;;;;;;-0.24;69.16;103400.81;10256015;28;20294;-76
2022/03/19 03:38:43;;;;;;;76.57;33.90;;;;;;;-0.33;69.03;103399.19;10256188;28;20216;-75
2022/03/19 03:43:47;;;;;;;77.83;33.77;;;;;;;-0.38;68.92;103406.44;10254947;28;20236;-73
2022/03/19 03:48:51;;;;;;;80.30;32.43;;;;;;;-0.34;69.41;103403.38;10255895;28;20234;-74
2022/03/19 03:53:54;;;;;;;77.20;34.40;;;;;;;-0.36;69.50;103404.91;10255617;28;20560;-73
2022/03/19 03:58:58;;;;;;;83.17;32.27;;;;;;;-0.46;69.69;103402.38;10259842;28;20235;-74
2022/03/19 04:04:02;;;;;;;83.23;33.57;;;;;;;-0.53;70.50;103397.53;10255220;29;20317;-73
2022/03/19 04:09:06;;;;;;;76.70;33.90;;;;;;;-0.55;70.00;103406.72;10255584;28;20298;-75
2022/03/19 04:14:10;;;;;;;81.03;33.40;;;;;;;-0.60;71.19;103408.00;10255314;28;20236;-73
2022/03/19 04:19:14;;;;;;;71.70;31.27;;;;;;;-0.70;71.60;103400.34;10254977;28;20259;-74
2022/03/19 04:24:19;;;;;;;81.03;36.63;;;;;;;-0.75;72.25;103410.91;10255112;28;20234;-73
2022/03/19 04:29:23;;;;;;;73.37;32.10;;;;;;;-0.83;71.01;103406.84;10254915;28;20216;-74
2022/03/19 04:34:27;;;;;;;67.77;30.73;;;;;;;-0.98;70.39;103416.63;10258657;28;20226;-74
2022/03/19 04:39:30;;;;;;;71.40;30.93;;;;;;;-0.97;72.85;103418.44;10261763;28;20246;-72
2022/03/19 04:44:35;;;;;;;82.17;33.40;;;;;;;-0.92;70.83;103422.25;10261746;28;20212;-74
2022/03/19 04:49:38;;;;;;;79.53;33.03;;;;;;;-0.95;71.90;103419.47;10262922;28;20605;-73
2022/03/19 04:54:42;;;;;;;70.57;30.23;;;;;;;-0.93;73.12;103424.69;10261432;28;20220;-73
2022/03/19 04:59:47;;;;;;;77.70;32.70;;;;;;;-0.96;71.79;103420.19;10261208;28;20243;-72
2022/03/19 05:04:51;;;;;;;69.43;32.53;;;;;;;-1.05;73.04;103419.41;10261627;28;20630;-74
2022/03/19 05:15:18;;;;;;;74.37;34.87;;;;;;;-0.85;73.00;103432.22;10261081;29;20660;-76
2022/03/19 05:20:21;;;;;;;78.60;34.97;;;;;;;-0.88;73.65;103429.38;10260179;28;20258;-73
2022/03/19 05:25:25;;;;;;;76.60;34.50;;;;;;;-1.05;73.67;103441.47;10260599;28;20303;-74
2022/03/19 05:30:30;;;;;;;76.93;34.97;;;;;;;-0.92;73.75;103436.66;10260617;28;20228;-73
2022/03/19 05:35:34;;;;;;;75.40;32.67;;;;;;;-0.77;73.30;103443.94;10260446;28;20238;-71
2022/03/19 05:40:37;;;;;;;77.50;34.90;;;;;;;-0.69;73.40;103442.03;10260094;29;20297;-73
2022/03/19 05:45:42;;;;;;;83.60;34.93;;;;;;;-0.52;75.49;103450.31;10263845;28;20231;-74
2022/03/19 05:50:46;;;;;;;85.37;37.57;;;;;;;-0.48;75.32;103456.56;10260284;28;20224;-76
2022/03/19 05:55:49;;;;;;;91.43;38.77;;;;;;;-0.37;73.40;103458.38;10258632;28;20544;-75
2022/03/19 06:00:54;;;;;;;90.57;39.03;;;;;;;-0.22;72.04;103459.63;10255868;28;20232;-74
2022/03/19 06:05:57;;;;;;;85.63;37.50;;;;;;;-0.07;72.49;103466.03;10255514;28;20212;-71
2022/03/19 06:11:01;;;;;;;87.10;36.57;;;;;;;0.05;73.02;103461.00;10255223;28;20889;-73
2022/03/19 06:16:06;;;;;;;82.00;35.83;;;;;;;0.25;73.16;103456.75;10255364;28;20228;-73
2022/03/19 06:21:10;;;;;;;79.50;35.87;;;;;;;0.38;73.34;103473.97;10256734;28;20236;-75
2022/03/19 06:26:14;;;;;;;75.90;34.57;;;;;;;0.61;72.95;103479.22;9893812;28;10000058;-73
2022/03/19 06:31:19;;;;;;;84.17;35.40;;;;;;;0.69;72.23;103486.75;10214988;29;20756;-74
2022/03/19 06:41:43;;;;;;;80.03;35.60;;;;;;;0.92;70.39;103493.66;10215021;29;20740;-74
2022/03/19 06:46:48;;;;;;;77.77;34.53;;;;;;;1.03;69.58;103498.88;10214517;29;20248;-74
2022/03/19 06:51:51;;;;;;;75.80;32.77;;;;;;;1.14;68.73;103495.47;10216750;29;20220;-76
2022/03/19 06:56:55;;;;;;;65.90;32.10;;;;;;;1.18;67.79;103499.16;10216752;29;20377;-73
2022/03/19 07:02:00;;;;;;;75.67;30.73;;;;;;;1.40;66.66;103500.03;10213818;29;20656;-70
2022/03/19 07:07:04;;;;;;;69.50;30.70;;;;;;;1.65;65.03;103502.81;10213834;29;20224;-71
2022/03/19 07:12:11;;;;;;;78.43;31.80;;;;;;;1.83;65.77;103501.66;10214151;29;20225;-74
2022/03/19 07:17:16;;;;;;;70.67;32.70;;;;;;;2.09;63.79;103496.78;10213524;29;20224;-72
2022/03/19 07:22:19;;;;;;;74.97;31.57;;;;;;;2.24;63.23;103493.69;10213494;29;20247;-70
2022/03/19 07:27:22;;;;;;;67.97;30.07;;;;;;;2.43;61.70;103495.03;10246818;29;20224;-69
2022/03/19 07:32:27;;;;;;;58.23;28.37;;;;;;;2.66;60.31;103490.78;10252846;28;20219;-73
2022/03/19 07:37:31;;;;;;;56.73;26.40;;;;;;;2.87;59.66;103496.56;10253454;28;20833;-72
2022/03/19 07:42:35;;;;;;;47.83;23.70;;;;;;;3.03;58.05;103500.31;10252652;28;20238;-72
2022/03/19 07:47:39;;;;;;;43.10;20.53;;;;;;;3.23;57.11;103505.16;10252586;28;20315;-72
2022/03/19 07:52:43;;;;;;;36.23;17.10;;;;;;;3.53;55.51;103503.84;10252708;28;20246;-72
2022/03/19 07:57:47;;;;;;;35.93;17.83;;;;;;;3.76;54.47;103506.31;10252361;28;20311;-73
2022/03/19 08:02:52;;;;;;;40.33;18.80;;;;;;;3.91;54.38;103509.00;10256035;28;20311;-73
2022/03/19 08:07:55;;;;;;;44.50;18.90;;;;;;;4.18;53.38;103506.56;10291979;28;20322;-72
2022/03/19 08:13:04;;;;;;;41.77;19.00;;;;;;;4.39;52.64;103507.09;10298880;28;20234;-72
2022/03/19 08:18:10;;;;;;;29.57;14.83;;;;;;;4.56;51.97;103511.66;10299376;28;20338;-74
2022/03/19 08:23:15;;;;;;;28.27;13.43;;;;;;;4.86;50.55;103515.28;10299362;28;20676;-74
2022/03/19 08:28:18;;;;;;;30.13;12.00;;;;;;;5.05;50.31;103513.09;10262325;28;20224;-73
2022/03/19 08:33:23;;;;;;;18.83;8.13;;;;;;;5.34;48.06;103511.53;10259186;28;20224;-73
2022/03/19 08:43:47;;;;;;;12.63;6.50;;;;;;;5.83;45.88;103508.56;10258358;28;20227;-72
2022/03/19 08:48:52;;;;;;;16.43;6.37;;;;;;;6.09;44.29;103507.50;10258115;28;20236;-70
2022/03/19 08:53:55;;;;;;;22.27;7.93;;;;;;;6.28;42.83;103502.63;10257972;28;20224;-67
2022/03/19 08:58:58;;;;;;;15.83;5.80;;;;;;;6.54;42.38;103497.25;10257878;28;20234;-66
2022/03/19 09:04:03;;;;;;;12.43;5.07;;;;;;;6.74;42.08;103504.44;10257659;28;20274;-65
2022/03/19 09:09:07;;;;;;;11.43;5.83;;;;;;;7.14;42.28;103501.44;10257340;28;20234;-68
2022/03/19 09:14:10;;;;;;;12.83;5.57;;;;;;;7.45;41.40;103503.19;10257380;28;20227;-67
2022/03/19 09:19:15;;;;;;;13.03;5.70;;;;;;;7.66;40.14;103503.41;10256743;28;20680;-68
2022/03/19 09:24:18;;;;;;;10.80;6.10;;;;;;;7.97;38.53;103501.59;10251783;28;20216;-63
2022/03/19 09:29:22;;;;;;;9.57;5.47;;;;;;;8.81;38.05;103497.16;10217429;29;20672;-69
2022/03/19 09:34:26;;;;;;;90.07;42.77;;;;;;;9.28;37.66;103498.53;10216886;29;20224;-70
2022/03/19 09:39:29;;;;;;;11.53;5.83;;;;;;;10.04;36.72;103487.22;10216965;29;20687;-66
2022/03/19 09:44:33;;;;;;;14.00;6.30;;;;;;;10.24;35.23;103490.69;10216563;29;20235;-64
2022/03/19 09:49:38;;;;;;;14.60;7.07;;;;;;;10.56;35.22;103489.41;10216252;29;20263;-67
2022/03/19 09:54:43;;;;;;;11.20;6.00;;;;;;;11.45;35.06;103491.16;10216048;29;20725;-65
2022/03/19 09:59:47;;;;;;;14.40;6.63;;;;;;;12.07;34.81;103475.16;10216246;29;20236;-65
2022/03/19 10:04:53;;;;;;;15.10;6.17;;;;;;;12.76;33.32;103470.50;10215798;29;20232;-67
2022/03/19 10:09:57;;;;;;;13.60;6.03;;;;;;;13.17;32.90;103469.16;10214689;29;20237;-74
2022/03/19 10:15:08;;;;;;;12.10;5.77;;;;;;;13.55;32.13;103467.63;10215607;29;20220;-72
2022/03/19 10:20:14;;;;;;;10.00;6.13;;;;;;;14.24;30.46;103465.97;10215081;29;20244;-73
2022/03/19 10:25:18;;;;;;;11.90;6.17;;;;;;;14.46;30.40;103465.69;10227902;29;20228;-73
2022/03/19 10:30:22;;;;;;;9.27;5.73;;;;;;;14.41;29.25;103460.34;10254584;28;20290;-71
2022/03/19 10:35:28;;;;;;;13.73;5.33;;;;;;;14.97;30.03;103451.16;10255055;28;20192;-74
2022/03/19 10:40:40;;;;;;;10.90;5.40;;;;;;;15.09;29.02;103459.28;10254903;28;20192;-72
2022/03/19 10:45:45;;;;;;;10.23;5.67;;;;;;;15.66;29.33;103451.72;10257279;28;20238;-73
2022/03/19 10:50:51;;;;;;;9.07;5.27;;;;;;;15.92;27.62;103440.88;10257304;28;20203;-73
2022/03/19 10:55:55;;;;;;;9.60;5.57;;;;;;;16.08;27.09;103429.75;10257207;28;20188;-72
2022/03/19 11:01:01;;;;;;;13.80;5.50;;;;;;;16.78;27.88;103442.25;10256827;28;20532;-72
2022/03/19 11:06:08;;;;;;;8.90;4.80;;;;;;;16.61;27.19;103432.38;10254300;28;20285;-71
2022/03/19 11:11:18;;;;;;;9.20;5.17;;;;;;;16.87;26.05;103429.25;10253314;29;20200;-71
2022/03/19 11:16:22;;;;;;;15.77;8.53;;;;;;;17.61;26.09;103424.91;10252808;28;20295;-71
2022/03/19 11:21:30;;;;;;;10.70;5.27;;;;;;;17.59;25.12;103421.38;10252767;28;20219;-72
2022/03/19 11:26:34;;;;;;;8.43;4.90;;;;;;;18.00;25.78;103406.84;10253028;28;20257;-72
2022/03/19 11:31:37;;;;;;;10.60;5.20;;;;;;;18.44;25.68;103401.97;10252989;28;20188;-72
2022/03/19 11:36:56;;;;;;;8.13;4.40;;;;;;;18.78;23.65;103395.09;10253663;28;20632;-71
2022/03/19 11:42:00;;;;;;;10.73;5.30;;;;;;;18.90;23.45;103387.25;10253562;28;20188;-73
2022/03/19 11:47:05;;;;;;;12.65;6.07;;;;;;;19.29;22.82;103379.50;9908201;28;10000574;-74
2022/03/19 11:52:18;;;;;;;10.53;5.40;;;;;;;19.59;23.14;103368.19;10221161;29;20640;-71
2022/03/19 11:57:21;;;;;;;8.97;5.73;;;;;;;19.90;23.18;103375.19;10220566;29;20193;-71
2022/03/19 12:02:26;;;;;;;10.43;5.57;;;;;;;20.16;22.59;103371.69;10220719;29;20227;-74
2022/03/19 12:07:41;;;;;;;;;;;;;;;20.51;22.96;103366.34;10221035;29;20054;-72
2022/03/19 12:12:45;;;;;;;;;;;;;;;21.13;22.13;103363.44;10220258;29;20010;-71
2022/03/19 12:17:49;;;;;;;;;;;;;;;20.87;22.13;103360.03;10220235;29;20251;-71
2022/03/19 12:22:56;;;;;;;;;;;;;;;21.14;22.20;103360.78;10219701;29;20001;-70
2022/03/19 12:27:59;;;;;;;;;;;;;;;20.77;21.64;103364.50;10219623;29;19926;-71
2022/03/19 12:33:02;;;;;;;;;;;;;;;22.74;21.33;103356.75;10220078;29;19945;-73
2022/03/19 12:38:07;;;;;;;;;;;;;;;21.97;21.39;103362.00;10219488;29;19936;-73
2022/03/19 12:43:10;;;;;;;12.60;7.13;;;;;;;21.03;23.11;103373.22;10218878;29;20218;-73
2022/03/19 12:48:15;;;;;;;10.65;6.40;;;;;;;20.64;22.27;103361.00;10239167;29;20220;-69
2022/03/19 12:53:31;;;;;;;11.20;6.43;;;;;;;19.84;21.62;103356.75;10258111;28;20223;-71
2022/03/19 12:58:38;;;;;;;11.48;6.28;;;;;;;19.85;22.77;103367.28;10257723;28;20398;-71
2022/03/19 13:03:42;;;;;;;9.30;5.70;;;;;;;19.45;22.76;103357.59;10258068;28;20312;-71
2022/03/19 13:08:48;;;;;;;18.83;7.53;;;;;;;19.00;23.53;103358.34;10257578;28;20314;-70
2022/03/19 13:13:51;;;;;;;13.65;7.38;;;;;;;18.59;24.30;103366.94;10257752;28;20261;-69
2022/03/19 13:19:00;;;;;;;12.75;6.53;;;;;;;18.19;24.17;103376.31;10257509;28;20246;-66
2022/03/19 13:24:09;;;;;;;9.35;5.88;;;;;;;17.70;24.11;103377.72;10256885;28;20322;-65
2022/03/19 13:29:14;;;;;;;13.60;6.90;;;;;;;17.63;23.81;103375.00;10257216;28;20228;-66
2022/03/19 13:34:19;;;;;;;11.45;6.55;;;;;;;17.68;24.08;103370.66;10257435;28;20226;-69
2022/03/19 13:39:26;;;;;;;10.02;5.32;;;;;;;17.08;23.26;103368.28;10256844;29;20224;-71
2022/03/19 13:44:31;;;;;;;9.60;6.07;;;;;;;16.68;25.20;103363.41;10256134;28;20220;-69
2022/03/19 13:49:43;;;;;;;10.37;7.07;;;;;;;16.55;24.92;103356.25;10225464;28;20217;-70
2022/03/19 13:54:48;;;;;;;11.73;6.03;;;;;;;16.28;25.38;103359.31;10216561;29;20255;-68
2022/03/19 14:00:04;;;;;;;10.07;6.07;;;;;;;16.03;24.56;103355.44;10216282;29;20217;-70
2022/03/19 14:05:11;;;;;;;14.50;6.10;;;;;;;15.72;24.15;103354.94;10215904;29;20223;-71
2022/03/19 14:10:16;;;;;;;9.03;5.53;;;;;;;15.16;24.32;103361.75;10215082;29;20216;-71
2022/03/19 14:15:19;;;;;;;10.23;6.10;;;;;;;14.94;26.69;103364.78;10215437;29;20308;-71
2022/03/19 14:20:24;;;;;;;11.50;5.67;;;;;;;14.78;24.93;103363.59;10215031;29;20240;-71
2022/03/19 14:25:37;;;;;;;15.33;6.73;;;;;;;14.54;27.03;103372.66;10215080;29;20684;-69
2022/03/19 14:30:41;;;;;;;11.50;6.30;;;;;;;14.15;25.65;103371.72;10216340;29;20220;-73
2022/03/19 14:35:47;;;;;;;12.00;6.87;;;;;;;13.19;27.95;103375.31;10212525;29;20424;-72
2022/03/19 14:41:00;;;;;;;14.03;6.13;;;;;;;12.68;27.29;103379.91;10575759;27;20547;-70
2022/03/19 14:46:05;;;;;;;12.83;5.77;;;;;;;12.21;27.74;103383.66;10575464;28;20224;-70
2022/03/19 14:51:09;;;;;;;15.23;7.40;;;;;;;12.17;28.14;103370.47;10575592;28;20610;-70
2022/03/19 14:56:15;;;;;;;12.63;5.77;;;;;;;11.86;28.29;103375.53;10575165;28;20271;-72
2022/03/19 15:01:19;;;;;;;10.63;6.53;;;;;;;11.81;28.36;103374.50;10576538;28;20223;-70
2022/03/19 15:06:25;;;;;;;12.17;5.70;;;;;;;11.50;28.80;103368.25;10574819;28;20687;-71
2022/03/19 15:11:30;;;;;;;13.80;6.60;;;;;;;11.20;29.13;103374.94;10574402;28;20210;-71
2022/03/19 15:16:33;;;;;;;11.77;6.10;;;;;;;11.25;28.81;103377.75;10574209;28;20313;-71
2022/03/19 15:21:41;;;;;;;11.63;5.83;;;;;;;11.16;29.79;103378.31;10574282;28;20298;-70
2022/03/19 15:26:46;;;;;;;12.17;6.03;;;;;;;10.84;29.32;103383.13;10573696;28;20572;-71
2022/03/19 15:31:50;;;;;;;12.20;6.63;;;;;;;10.70;29.22;103382.59;10574062;28;20214;-72
2022/03/19 15:36:54;;;;;;;12.37;7.07;;;;;;;10.54;29.66;103377.69;10573305;28;20254;-72
2022/03/19 15:41:59;;;;;;;11.37;6.23;;;;;;;10.50;31.18;103383.56;10576058;28;20246;-74
2022/03/19 15:47:02;;;;;;;11.33;6.83;;;;;;;10.79;29.99;103375.16;10615972;28;20222;-76
2022/03/19 15:52:07;;;;;;;21.77;13.13;;;;;;;10.81;29.69;103386.50;10588725;28;20218;-73
2022/03/19 15:57:12;;;;;;;12.30;6.43;;;;;;;10.55;30.45;103387.22;10587065;28;20245;-70
2022/03/19 16:02:15;;;;;;;10.20;5.63;;;;;;;10.51;31.44;103385.31;10588207;28;20371;-68
2022/03/19 16:07:19;;;;;;;14.40;6.47;;;;;;;10.20;31.06;103380.66;10586369;28;20219;-72
2022/03/19 16:12:23;;;;;;;12.53;7.00;;;;;;;9.96;31.59;103394.31;10586665;28;20301;-70
2022/03/19 16:17:27;;;;;;;12.90;6.53;;;;;;;9.79;31.75;103385.84;10586081;28;20536;-71
2022/03/19 16:22:30;;;;;;;11.77;6.37;;;;;;;9.59;32.39;103391.91;10586006;28;20289;-70
2022/03/19 16:27:36;;;;;;;12.17;6.33;;;;;;;9.45;32.37;103381.75;10586042;28;20522;-72
2022/03/19 16:32:41;;;;;;;14.73;6.27;;;;;;;9.21;32.73;103390.22;10587300;28;20215;-71
2022/03/19 16:37:45;;;;;;;12.17;6.50;;;;;;;9.10;33.05;103390.59;10585358;28;20234;-73
2022/03/19 16:42:50;;;;;;;15.53;7.00;;;;;;;9.01;32.73;103403.13;10545746;28;20215;-76
2022/03/19 16:47:53;;;;;;;10.80;5.70;;;;;;;8.94;34.07;103406.25;10542717;28;20722;-70
2022/03/19 16:52:58;;;;;;;11.37;6.07;;;;;;;8.67;34.60;103407.59;10542701;28;20215;-70
2022/03/19 16:58:03;;;;;;;38.30;18.00;;;;;;;8.44;35.94;103403.91;10542553;28;20231;-72
2022/03/19 17:03:07;;;;;;;15.30;7.03;;;;;;;8.29;36.46;103421.31;10542967;28;20291;-72
2022/03/19 17:08:11;;;;;;;12.40;6.90;;;;;;;8.18;36.54;103420.75;10542140;28;20548;-73
2022/03/19 17:13:18;;;;;;;21.83;8.70;;;;;;;7.88;36.70;103423.53;10541682;28;20661;-74
2022/03/19 17:18:22;;;;;;;16.70;7.70;;;;;;;7.87;36.96;103425.25;10541221;28;20226;-70
2022/03/19 17:23:25;;;;;;;19.83;7.53;;;;;;;7.73;36.84;103433.13;10541437;28;20321;-72
2022/03/19 17:28:30;;;;;;;16.37;7.37;;;;;;;7.66;36.90;103441.38;10541149;28;20250;-71
2022/03/19 17:33:33;;;;;;;16.43;7.37;;;;;;;7.53;37.23;103449.28;10541163;28;20288;-69
2022/03/19 17:38:37;;;;;;;32.63;10.50;;;;;;;7.39;37.60;103448.59;10540744;28;20245;-71
2022/03/19 17:43:42;;;;;;;18.47;8.23;;;;;;;7.34;37.12;103456.91;10541612;28;20226;-70
2022/03/19 17:48:45;;;;;;;16.20;8.17;;;;;;;7.30;37.92;103462.72;10582656;28;20709;-71
2022/03/19 17:53:49;;;;;;;17.70;7.77;;;;;;;7.09;37.80;103459.91;10582563;28;20223;-73
2022/03/19 17:58:53;;;;;;;17.10;7.53;;;;;;;7.20;37.63;103468.19;10582073;28;20679;-73
2022/03/19 18:03:57;;;;;;;25.27;9.27;;;;;;;7.23;39.39;103466.66;10570138;28;20216;-72
2022/03/19 18:09:00;;;;;;;31.67;13.13;;;;;;;7.13;40.15;103473.88;10537765;28;20735;-75
2022/03/19 18:14:05;;;;;;;18.23;9.93;;;;;;;6.93;39.10;103486.59;10538287;28;20288;-75
2022/03/19 18:19:09;;;;;;;19.07;8.93;;;;;;;6.88;38.94;103482.88;10539027;28;20254;-74
2022/03/19 18:24:13;;;;;;;20.37;9.07;;;;;;;6.87;39.58;103493.97;10538152;28;20717;-75
2022/03/19 18:29:20;;;;;;;22.50;9.37;;;;;;;6.73;39.81;103487.16;10538841;28;20298;-77
2022/03/19 18:34:23;;;;;;;22.90;9.60;;;;;;;6.51;41.80;103483.28;10534140;28;20645;-66
2022/03/19 18:39:27;;;;;;;16.53;9.23;;;;;;;6.38;42.91;103492.06;10521084;28;20292;-65
2022/03/19 18:44:32;;;;;;;20.63;10.97;;;;;;;6.29;42.94;103494.09;10521511;28;20597;-66
2022/03/19 18:49:38;;;;;;;28.47;11.63;;;;;;;6.23;42.93;103506.63;10537539;28;20208;-64
2022/03/19 18:54:43;;;;;;;19.90;10.00;;;;;;;6.22;42.43;103514.28;10538477;28;20659;-68
2022/03/19 18:59:47;;;;;;;26.90;11.63;;;;;;;6.15;41.52;103513.03;10538976;28;20227;-73
2022/03/19 19:04:51;;;;;;;25.23;12.17;;;;;;;6.19;40.85;103520.16;10538157;28;20542;-74
2022/03/19 19:09:55;;;;;;;25.20;11.87;;;;;;;6.18;41.83;103520.06;10538664;28;20290;-74
2022/03/19 19:15:01;;;;;;;21.77;11.40;;;;;;;6.11;41.49;103523.97;10541854;28;20199;-73
2022/03/19 19:20:05;;;;;;;31.43;14.17;;;;;;;6.04;41.86;103528.69;10539940;28;20335;-77
2022/03/19 19:25:08;;;;;;;33.80;12.67;;;;;;;5.99;42.47;103530.97;10542461;28;20306;-77
2022/03/19 19:30:13;;;;;;;27.80;13.10;;;;;;;5.88;42.99;103526.00;10546905;28;20251;-75
2022/03/19 19:35:17;;;;;;;25.90;12.73;;;;;;;5.75;43.62;103534.63;10545799;28;20219;-75
2022/03/19 19:40:22;;;;;;;27.27;14.00;;;;;;;5.51;43.71;103531.47;10564404;28;20593;-75
2022/03/19 19:45:29;;;;;;;33.27;15.47;;;;;;;5.30;45.07;103542.13;10575983;28;20700;-74
2022/03/19 19:50:33;;;;;;;30.17;14.80;;;;;;;5.30;45.87;103534.41;10504257;28;20298;-74
2022/03/19 19:55:36;;;;;;;33.50;16.43;;;;;;;5.15;46.28;103533.44;10504542;28;20303;-72
2022/03/19 20:00:43;;;;;;;32.17;16.23;;;;;;;5.08;46.19;103528.72;10505504;28;20668;-75
2022/03/19 20:05:53;;;;;;;35.90;17.60;;;;;;;4.98;46.99;103540.13;10533917;28;20302;-73
2022/03/19 20:10:57;;;;;;;34.03;17.63;;;;;;;4.88;48.71;103530.06;10545873;28;20653;-70
2022/03/19 20:16:04;;;;;;;34.30;16.97;;;;;;;4.90;49.57;103532.72;10543507;28;20215;-71
2022/03/19 20:21:09;;;;;;;35.40;16.80;;;;;;;4.66;49.97;103534.59;10545814;28;20235;-73
2022/03/19 20:26:12;;;;;;;31.47;16.97;;;;;;;4.61;49.72;103535.97;10544203;28;20211;-75
2022/03/19 20:31:17;;;;;;;32.90;15.53;;;;;;;4.60;50.01;103547.06;10544680;28;20223;-71
2022/03/19 20:36:21;;;;;;;37.37;17.50;;;;;;;4.42;50.83;103548.41;10539107;28;20231;-74
2022/03/19 20:41:25;;;;;;;38.10;17.87;;;;;;;4.27;50.37;103550.91;10575725;28;20579;-74
2022/03/19 20:46:33;;;;;;;36.87;17.60;;;;;;;4.26;52.01;103548.22;10572379;28;20249;-72
2022/03/19 20:51:37;;;;;;;34.70;18.37;;;;;;;4.17;51.69;103551.06;10549173;28;20225;-73
2022/03/19 20:56:42;;;;;;;39.23;19.13;;;;;;;4.06;52.13;103551.13;10544830;28;20226;-73
2022/03/19 21:01:47;;;;;;;50.23;20.00;;;;;;;3.94;51.51;103556.34;10528362;28;20349;-74
2022/03/19 21:06:52;;;;;;;45.27;20.40;;;;;;;3.73;53.05;103557.44;10528478;28;20215;-71
2022/03/19 21:11:56;;;;;;;47.77;20.83;;;;;;;3.70;52.78;103557.22;10543440;28;20301;-74
2022/03/19 21:17:01;;;;;;;48.43;22.30;;;;;;;3.73;53.70;103544.59;10543647;28;20211;-75
2022/03/19 21:22:06;;;;;;;48.67;23.07;;;;;;;3.50;54.06;103557.53;10545315;28;20239;-76
2022/03/19 21:27:11;;;;;;;51.57;23.50;;;;;;;3.39;53.96;103556.78;10546103;28;20687;-73
2022/03/19 21:32:16;;;;;;;45.00;23.47;;;;;;;3.43;53.55;103556.19;10545832;28;20223;-77
2022/03/19 21:37:20;;;;;;;53.03;24.27;;;;;;;3.39;55.07;103556.78;10543170;28;20241;-76
2022/03/19 21:42:23;;;;;;;53.50;24.83;;;;;;;3.39;55.02;103563.59;10577344;28;20305;-71
2022/03/19 21:47:29;;;;;;;54.03;25.00;;;;;;;3.46;53.04;103581.22;10587252;28;20294;-74
2022/03/19 21:52:34;;;;;;;48.63;22.90;;;;;;;3.30;54.91;103583.47;10589694;28;20298;-76
2022/03/19 21:57:38;;;;;;;54.47;24.70;;;;;;;3.00;54.35;103586.44;10594202;28;20329;-78
2022/03/19 22:02:43;;;;;;;50.87;24.77;;;;;;;3.02;55.17;103585.75;10591207;28;20352;-75
2022/03/19 22:07:48;;;;;;;57.00;25.73;;;;;;;2.93;56.41;103592.81;10585969;28;20243;-76
2022/03/19 22:12:59;;;;;;;52.83;23.10;;;;;;;2.92;58.34;103597.78;10581621;28;20686;-64
2022/03/19 22:18:11;;;;;;;53.87;27.47;;;;;;;2.81;57.89;103601.28;10581653;28;20210;-63
2022/03/19 22:23:15;;;;;;;60.37;29.20;;;;;;;2.82;58.21;103603.03;10581166;28;20227;-66
2022/03/19 22:28:19;;;;;;;67.10;33.43;;;;;;;2.70;58.65;103604.72;10581394;28;20225;-64
2022/03/19 22:33:25;;;;;;;71.43;35.27;;;;;;;2.62;58.45;103603.28;10581249;28;20237;-65
2022/03/19 22:38:29;;;;;;;62.43;30.80;;;;;;;2.55;57.17;103599.38;10578173;28;20295;-65
2022/03/19 22:43:34;;;;;;;63.03;28.47;;;;;;;2.56;57.35;103605.38;10539037;28;20215;-64
2022/03/19 22:48:39;;;;;;;72.37;33.80;;;;;;;2.56;59.47;103602.78;10538589;28;20215;-66
2022/03/19 22:53:42;;;;;;;55.37;27.87;;;;;;;2.47;58.90;103602.16;10539018;28;20310;-65
2022/03/19 22:58:47;;;;;;;53.77;24.33;;;;;;;2.40;57.79;103597.34;10540319;28;20215;-63
2022/03/19 23:03:52;;;;;;;42.67;21.63;;;;;;;2.40;58.18;103605.91;10547084;28;20219;-66
2022/03/19 23:08:58;;;;;;;50.20;21.10;;;;;;;2.30;59.15;103598.31;10546716;28;20245;-66
2022/03/19 23:14:02;;;;;;;44.90;21.77;;;;;;;2.24;59.20;103595.28;10546769;28;20211;-64
2022/03/19 23:19:07;;;;;;;53.03;21.17;;;;;;;2.19;59.08;103596.63;10546761;28;20231;-66
2022/03/19 23:24:11;;;;;;;45.10;20.83;;;;;;;2.11;58.61;103590.91;10546258;28;20216;-63